createdAt,value
2019-04-27T00:00:40.538Z,17.75
2019-04-27T00:02:24.841Z,17.40
2019-04-27T00:04:04.076Z,19.30
2019-04-27T00:05:40.340Z,16.95
2019-04-27T00:07:16.958Z,17.55
2019-04-27T00:08:59.101Z,17.17
2019-04-27T00:10:51.098Z,17.15
2019-04-27T00:12:26.559Z,17.05
2019-04-27T00:14:00.940Z,16.85
2019-04-27T00:15:36.809Z,17.48
2019-04-27T00:17:43.530Z,16.55
2019-04-27T00:19:13.063Z,16.70
2019-04-27T00:20:48.637Z,17.67
2019-04-27T00:22:39.766Z,18.02
2019-04-27T00:24:14.465Z,17.45
2019-04-27T00:25:48.744Z,18.87
2019-04-27T00:27:26.161Z,18.12
2019-04-27T00:29:00.384Z,19.15
2019-04-27T00:30:35.628Z,18.48
2019-04-27T00:32:10.036Z,19.05
2019-04-27T00:33:44.255Z,18.12
2019-04-27T00:35:20.113Z,18.25
2019-04-27T00:36:58.679Z,16.93
2019-04-27T00:38:53.470Z,17.82
2019-04-27T00:40:33.541Z,17.25
2019-04-27T00:42:08.408Z,18.65
2019-04-27T00:43:42.778Z,18.32
2019-04-27T00:45:18.601Z,17.45
2019-04-27T00:46:53.383Z,18.40
2019-04-27T00:48:27.844Z,20.27
2019-04-27T00:50:03.611Z,18.87
2019-04-27T00:51:37.972Z,17.40
2019-04-27T00:53:13.372Z,17.20
2019-04-27T00:54:47.865Z,16.65
2019-04-27T00:56:29.748Z,19.65
2019-04-27T00:58:13.045Z,18.67
2019-04-27T01:00:07.189Z,19.32
2019-04-27T01:01:55.000Z,18.67
2019-04-27T01:03:30.904Z,19.20
2019-04-27T01:05:08.157Z,19.37
2019-04-27T01:06:43.757Z,19.00
2019-04-27T01:08:18.885Z,18.17
2019-04-27T01:09:53.743Z,18.15
2019-04-27T01:11:27.968Z,18.37
2019-04-27T01:13:03.322Z,18.80
2019-04-27T01:14:37.892Z,20.72
2019-04-27T01:16:14.674Z,19.23
2019-04-27T01:17:49.027Z,20.27
2019-04-27T01:19:23.553Z,18.50
2019-04-27T01:20:59.094Z,19.95
2019-04-27T01:22:33.496Z,19.67
2019-04-27T01:24:08.973Z,21.05
2019-04-27T01:25:44.915Z,21.57
2019-04-27T01:27:35.842Z,20.30
2019-04-27T01:29:11.699Z,19.20
2019-04-27T01:30:49.000Z,18.65
2019-04-27T01:32:23.436Z,19.27
2019-04-27T01:33:59.007Z,20.15
2019-04-27T01:35:33.536Z,20.08
2019-04-27T01:37:09.309Z,20.43
2019-04-27T01:38:43.620Z,19.62
2019-04-27T01:40:19.335Z,19.40
2019-04-27T01:41:54.029Z,20.35
2019-04-27T01:43:28.471Z,19.12
2019-04-27T01:45:06.114Z,19.15
2019-04-27T01:46:40.365Z,18.73
2019-04-27T01:48:23.027Z,18.92
2019-04-27T01:49:50.580Z,19.07
2019-04-27T01:51:24.809Z,20.75
2019-04-27T01:52:59.105Z,19.82
2019-04-27T01:54:33.337Z,20.02
2019-04-27T01:56:09.200Z,19.75
2019-04-27T01:57:43.620Z,20.35
2019-04-27T01:59:19.768Z,20.35
2019-04-27T02:00:59.455Z,20.15
2019-04-27T02:02:35.566Z,19.92
2019-04-27T02:04:14.408Z,19.90
2019-04-27T02:05:50.272Z,19.12
2019-04-27T02:07:24.928Z,19.57
2019-04-27T02:08:59.593Z,19.55
2019-04-27T02:10:34.080Z,18.05
2019-04-27T02:12:09.424Z,18.48
2019-04-27T02:13:43.928Z,18.10
2019-04-27T02:15:19.172Z,19.12
2019-04-27T02:16:53.512Z,18.77
2019-04-27T02:18:35.624Z,18.40
2019-04-27T02:20:05.098Z,18.50
2019-04-27T02:21:39.384Z,18.20
2019-04-27T02:23:13.601Z,19.10
2019-04-27T02:24:49.260Z,19.02
2019-04-27T02:26:23.680Z,18.25
2019-04-27T02:27:59.545Z,18.20
2019-04-27T02:29:39.077Z,19.20
2019-04-27T02:31:26.973Z,19.42
2019-04-27T02:33:20.264Z,19.90
2019-04-27T02:35:02.398Z,19.25
2019-04-27T02:36:38.866Z,19.70
2019-04-27T02:38:12.499Z,18.45
2019-04-27T02:39:46.845Z,18.57
2019-04-27T02:41:21.061Z,17.90
2019-04-27T02:42:55.877Z,18.65
2019-04-27T02:44:34.433Z,17.95
2019-04-27T02:46:09.550Z,21.02
2019-04-27T02:47:44.065Z,19.32
2019-04-27T02:49:20.129Z,20.00
2019-04-27T02:50:55.933Z,20.35
2019-04-27T02:52:31.804Z,21.62
2019-04-27T02:54:06.038Z,21.75
2019-04-27T02:55:40.807Z,21.62
2019-04-27T02:57:15.034Z,20.88
2019-04-27T02:58:49.899Z,20.62
2019-04-27T03:00:24.235Z,21.30
2019-04-27T03:02:00.712Z,20.70
2019-04-27T03:03:35.208Z,19.80
2019-04-27T03:05:12.722Z,20.52
2019-04-27T03:06:45.521Z,20.40
2019-04-27T03:08:20.177Z,22.07
2019-04-27T03:09:54.608Z,19.87
2019-04-27T03:11:30.671Z,20.05
2019-04-27T03:13:12.412Z,19.87
2019-04-27T03:14:50.600Z,22.90
2019-04-27T03:16:32.359Z,20.45
2019-04-27T03:18:09.874Z,19.35
2019-04-27T03:20:00.832Z,18.48
2019-04-27T03:21:42.658Z,18.52
2019-04-27T03:23:17.041Z,18.45
2019-04-27T03:25:09.897Z,20.10
2019-04-27T03:26:50.110Z,22.58
2019-04-27T03:28:23.788Z,20.77
2019-04-27T03:29:59.715Z,19.17
2019-04-27T03:31:34.061Z,19.30
2019-04-27T03:33:11.938Z,18.37
2019-04-27T03:34:44.249Z,19.17
2019-04-27T03:36:21.553Z,18.45
2019-04-27T03:37:54.518Z,19.27
2019-04-27T03:39:29.967Z,19.60
2019-04-27T03:41:04.753Z,19.80
2019-04-27T03:42:40.710Z,19.45
2019-04-27T03:44:15.141Z,19.35
2019-04-27T03:45:51.761Z,28.00
2019-04-27T03:47:25.279Z,24.43
2019-04-27T03:49:00.136Z,24.25
2019-04-27T03:50:39.892Z,21.23
2019-04-27T03:52:29.930Z,20.57
2019-04-27T03:54:19.387Z,20.88
2019-04-27T03:56:05.123Z,20.02
2019-04-27T03:57:47.013Z,20.08
2019-04-27T03:59:22.885Z,20.43
2019-04-27T04:00:59.884Z,18.90
2019-04-27T04:02:33.163Z,18.77
2019-04-27T04:04:10.091Z,18.17
2019-04-27T04:05:43.221Z,16.90
2019-04-27T04:07:19.468Z,16.90
2019-04-27T04:08:55.229Z,18.42
2019-04-27T04:10:31.158Z,17.90
2019-04-27T04:12:09.443Z,18.12
2019-04-27T04:13:44.500Z,19.07
2019-04-27T04:15:36.508Z,17.52
2019-04-27T04:17:12.739Z,17.50
2019-04-27T04:19:00.381Z,17.00
2019-04-27T04:20:33.817Z,17.17
2019-04-27T04:22:10.237Z,16.50
2019-04-27T04:23:43.921Z,16.85
2019-04-27T04:25:20.014Z,17.25
2019-04-27T04:26:54.010Z,16.05
2019-04-27T04:28:29.626Z,15.18
2019-04-27T04:30:09.800Z,15.38
2019-04-27T04:31:44.603Z,15.20
2019-04-27T04:33:20.603Z,14.10
2019-04-27T04:34:57.620Z,14.30
2019-04-27T04:36:31.854Z,15.15
2019-04-27T04:38:06.128Z,14.68
2019-04-27T04:39:40.726Z,13.22
2019-04-27T04:41:20.081Z,14.05
2019-04-27T04:42:56.245Z,13.60
2019-04-27T04:44:36.432Z,13.18
2019-04-27T04:46:29.808Z,14.20
2019-04-27T04:48:05.984Z,12.43
2019-04-27T04:49:40.209Z,14.15
2019-04-27T04:51:14.441Z,13.90
2019-04-27T04:52:49.922Z,13.55
2019-04-27T04:54:24.875Z,13.62
2019-04-27T04:56:00.404Z,13.08
2019-04-27T04:57:34.858Z,13.95
2019-04-27T04:59:10.062Z,14.73
2019-04-27T05:00:44.456Z,13.60
2019-04-27T05:02:19.160Z,13.50
2019-04-27T05:03:53.443Z,13.28
2019-04-27T05:05:29.132Z,13.68
2019-04-27T05:07:03.749Z,13.85
2019-04-27T05:08:39.340Z,12.85
2019-04-27T05:10:13.682Z,13.32
2019-04-27T05:11:48.683Z,12.93
2019-04-27T05:13:23.033Z,13.93
2019-04-27T05:14:58.944Z,12.20
2019-04-27T05:16:33.268Z,13.03
2019-04-27T05:18:09.131Z,13.00
2019-04-27T05:19:44.260Z,12.45
2019-04-27T05:21:20.124Z,12.37
2019-04-27T05:22:54.434Z,11.68
2019-04-27T05:24:29.255Z,11.55
2019-04-27T05:26:03.695Z,11.55
2019-04-27T05:27:38.953Z,11.35
2019-04-27T05:29:13.840Z,11.20
2019-04-27T05:30:48.934Z,11.12
2019-04-27T05:32:23.396Z,10.38
2019-04-27T05:34:00.464Z,10.03
2019-04-27T05:35:34.738Z,10.65
2019-04-27T05:37:09.093Z,10.78
2019-04-27T05:38:45.923Z,10.98
2019-04-27T05:40:19.229Z,10.32
2019-04-27T05:41:53.460Z,10.78
2019-04-27T05:43:30.156Z,11.20
2019-04-27T05:45:22.773Z,10.63
2019-04-27T05:47:13.290Z,10.93
2019-04-27T05:48:48.857Z,9.93
2019-04-27T05:50:35.273Z,10.00
2019-04-27T05:51:59.527Z,10.18
2019-04-27T05:53:33.949Z,9.60
2019-04-27T05:55:08.702Z,10.35
2019-04-27T05:56:44.504Z,9.40
2019-04-27T05:58:19.586Z,9.10
2019-04-27T05:59:54.196Z,10.20
2019-04-27T06:01:29.664Z,10.63
2019-04-27T06:03:04.160Z,10.85
2019-04-27T06:04:39.040Z,11.95
2019-04-27T06:06:14.268Z,11.88
2019-04-27T06:07:48.872Z,11.50
2019-04-27T06:09:23.264Z,10.18
2019-04-27T06:10:59.073Z,10.82
2019-04-27T06:12:33.379Z,10.08
2019-04-27T06:14:09.512Z,10.32
2019-04-27T06:15:43.530Z,10.40
2019-04-27T06:17:19.438Z,10.05
2019-04-27T06:18:53.940Z,10.20
2019-04-27T06:20:29.373Z,11.95
2019-04-27T06:22:03.602Z,13.25
2019-04-27T06:23:39.086Z,12.70
2019-04-27T06:25:13.752Z,13.65
2019-04-27T06:26:49.654Z,13.40
2019-04-27T06:28:23.905Z,14.10
2019-04-27T06:29:59.598Z,14.83
2019-04-27T06:31:33.824Z,13.80
2019-04-27T06:33:09.364Z,14.55
2019-04-27T06:34:44.427Z,14.50
2019-04-27T06:36:19.876Z,13.30
2019-04-27T06:37:54.465Z,13.58
2019-04-27T06:39:29.761Z,12.65
2019-04-27T06:41:04.287Z,12.43
2019-04-27T06:42:40.159Z,12.35
2019-04-27T06:44:14.393Z,11.35
2019-04-27T06:45:48.905Z,12.20
2019-04-27T06:47:23.184Z,11.80
2019-04-27T06:48:59.144Z,11.45
2019-04-27T06:50:33.400Z,11.57
2019-04-27T06:52:08.662Z,10.98
2019-04-27T06:53:43.018Z,11.22
2019-04-27T06:55:18.760Z,10.55
2019-04-27T06:56:53.180Z,10.98
2019-04-27T06:58:29.120Z,12.82
2019-04-27T07:00:03.687Z,11.38
2019-04-27T07:01:39.035Z,11.68
2019-04-27T07:03:13.443Z,13.20
2019-04-27T07:04:49.025Z,13.72
2019-04-27T07:06:23.616Z,14.28
2019-04-27T07:07:59.115Z,12.85
2019-04-27T07:09:33.453Z,11.68
2019-04-27T07:11:11.028Z,11.45
2019-04-27T07:12:43.597Z,13.25
2019-04-27T07:14:19.528Z,11.20
2019-04-27T07:15:55.336Z,12.63
2019-04-27T07:17:29.571Z,12.68
2019-04-27T07:19:04.453Z,10.90
2019-04-27T07:20:38.907Z,12.98
2019-04-27T07:22:13.241Z,10.93
2019-04-27T07:23:59.681Z,11.08
2019-04-27T07:25:34.096Z,10.68
2019-04-27T07:27:09.364Z,10.43
2019-04-27T07:28:43.657Z,9.68
2019-04-27T07:30:19.014Z,9.80
2019-04-27T07:31:53.457Z,8.58
2019-04-27T07:33:29.524Z,9.13
2019-04-27T07:35:03.996Z,10.03
2019-04-27T07:36:39.369Z,9.53
2019-04-27T07:38:13.817Z,9.08
2019-04-27T07:39:49.188Z,9.65
2019-04-27T07:41:23.595Z,10.63
2019-04-27T07:43:02.180Z,9.38
2019-04-27T07:44:39.068Z,9.85
2019-04-27T07:46:14.106Z,8.93
2019-04-27T07:47:49.964Z,8.63
2019-04-27T07:49:24.185Z,7.85
2019-04-27T07:50:59.075Z,7.65
2019-04-27T07:52:33.652Z,8.73
2019-04-27T07:54:08.982Z,7.83
2019-04-27T07:55:43.287Z,8.50
2019-04-27T07:57:19.433Z,7.62
2019-04-27T07:58:53.412Z,8.25
2019-04-27T08:00:28.957Z,8.20
2019-04-27T08:02:03.628Z,8.98
2019-04-27T08:03:39.013Z,8.83
2019-04-27T08:05:13.564Z,9.40
2019-04-27T08:06:49.532Z,9.40
2019-04-27T08:08:23.649Z,11.95
2019-04-27T08:10:01.132Z,11.85
2019-04-27T08:11:33.782Z,12.75
2019-04-27T08:13:09.580Z,10.55
2019-04-27T08:14:43.925Z,10.58
2019-04-27T08:16:18.303Z,10.20
2019-04-27T08:17:59.197Z,8.75
2019-04-27T08:19:33.805Z,8.65
2019-04-27T08:21:08.962Z,9.28
2019-04-27T08:22:43.205Z,9.30
2019-04-27T08:24:20.037Z,9.88
2019-04-27T08:25:54.329Z,10.63
2019-04-27T08:27:36.217Z,9.50
2019-04-27T08:29:32.825Z,9.38
2019-04-27T08:31:18.738Z,11.38
2019-04-27T08:32:55.010Z,10.90
2019-04-27T08:34:36.848Z,10.08
2019-04-27T08:36:11.180Z,9.93
2019-04-27T08:37:45.389Z,9.13
2019-04-27T08:39:20.230Z,10.50
2019-04-27T08:40:54.453Z,9.50
2019-04-27T08:42:29.409Z,9.73
2019-04-27T08:44:03.849Z,10.40
2019-04-27T08:45:39.162Z,9.35
2019-04-27T08:47:14.717Z,9.35
2019-04-27T08:48:49.118Z,9.30
2019-04-27T08:50:23.610Z,8.65
2019-04-27T08:52:01.340Z,8.18
2019-04-27T08:53:33.740Z,9.98
2019-04-27T08:55:09.539Z,8.23
2019-04-27T08:56:44.112Z,8.35
2019-04-27T08:58:19.651Z,8.00
2019-04-27T08:59:54.220Z,8.15
2019-04-27T09:01:29.945Z,8.38
2019-04-27T09:03:04.407Z,8.08
2019-04-27T09:04:39.507Z,7.20
2019-04-27T09:06:13.955Z,10.25
2019-04-27T09:08:06.035Z,8.15
2019-04-27T09:09:41.883Z,8.08
2019-04-27T09:11:20.719Z,8.80
2019-04-27T09:13:14.860Z,7.85
2019-04-27T09:15:02.949Z,8.38
2019-04-27T09:16:38.986Z,7.72
2019-04-27T09:18:14.861Z,7.22
2019-04-27T09:19:51.265Z,7.47
2019-04-27T09:21:25.553Z,7.90
2019-04-27T09:22:59.779Z,7.25
2019-04-27T09:24:33.992Z,7.50
2019-04-27T09:26:10.925Z,6.95
2019-04-27T09:27:44.614Z,6.55
2019-04-27T09:29:19.789Z,8.73
2019-04-27T09:30:54.917Z,8.40
2019-04-27T09:32:29.213Z,8.80
2019-04-27T09:34:03.438Z,7.90
2019-04-27T09:35:37.696Z,7.30
2019-04-27T09:37:11.922Z,7.67
2019-04-27T09:38:46.504Z,7.33
2019-04-27T09:40:20.907Z,5.50
2019-04-27T09:41:57.157Z,6.53
2019-04-27T09:43:31.705Z,5.58
2019-04-27T09:45:07.376Z,5.83
2019-04-27T09:46:41.596Z,5.37
2019-04-27T09:48:17.606Z,5.78
2019-04-27T09:49:52.030Z,5.90
2019-04-27T09:51:26.244Z,5.50
2019-04-27T09:53:00.452Z,5.20
2019-04-27T09:54:36.209Z,6.42
2019-04-27T09:56:10.576Z,5.37
2019-04-27T09:57:46.529Z,5.95
2019-04-27T09:59:20.881Z,6.33
2019-04-27T10:00:56.675Z,5.85
2019-04-27T10:02:31.593Z,6.50
2019-04-27T10:04:05.803Z,5.70
2019-04-27T10:05:40.004Z,5.40
2019-04-27T10:07:14.222Z,6.25
2019-04-27T10:08:48.483Z,6.22
2019-04-27T10:10:22.764Z,5.87
2019-04-27T10:11:56.994Z,7.00
2019-04-27T10:13:31.216Z,5.83
2019-04-27T10:15:06.857Z,6.05
2019-04-27T10:16:41.072Z,5.87
2019-04-27T10:18:16.337Z,6.35
2019-04-27T10:19:50.908Z,5.67
2019-04-27T10:21:26.429Z,5.40
2019-04-27T10:23:00.808Z,5.62
2019-04-27T10:24:35.832Z,5.97
2019-04-27T10:26:10.098Z,5.75
2019-04-27T10:27:45.953Z,5.12
2019-04-27T10:29:20.215Z,6.95
2019-04-27T10:30:55.736Z,6.45
2019-04-27T10:32:30.057Z,6.03
2019-04-27T10:34:05.873Z,6.25
2019-04-27T10:35:40.274Z,6.28
2019-04-27T10:37:16.103Z,6.70
2019-04-27T10:38:50.368Z,6.45
2019-04-27T10:40:26.247Z,6.10
2019-04-27T10:42:00.452Z,6.42
2019-04-27T10:43:34.712Z,6.15
2019-04-27T10:45:10.771Z,9.30
2019-04-27T10:46:44.984Z,14.47
2019-04-27T10:48:19.846Z,9.63
2019-04-27T10:49:54.132Z,7.50
2019-04-27T10:51:28.360Z,11.45
2019-04-27T10:53:02.665Z,7.15
2019-04-27T10:54:36.912Z,8.98
2019-04-27T10:56:11.196Z,8.10
2019-04-27T10:57:45.486Z,7.87
2019-04-27T10:59:20.703Z,8.25
2019-04-27T11:00:59.740Z,10.10
2019-04-27T11:02:33.993Z,8.23
2019-04-27T11:04:18.837Z,5.90
2019-04-27T11:05:54.696Z,6.28
2019-04-27T11:07:30.598Z,6.78
2019-04-27T11:09:07.480Z,7.35
2019-04-27T11:10:41.691Z,7.53
2019-04-27T11:12:15.967Z,7.70
2019-04-27T11:13:50.164Z,6.47
2019-04-27T11:15:26.410Z,6.28
2019-04-27T11:17:00.678Z,5.67
2019-04-27T11:18:36.055Z,6.33
2019-04-27T11:20:11.044Z,5.22
2019-04-27T11:21:45.612Z,6.72
2019-04-27T11:23:19.829Z,5.50
2019-04-27T11:24:56.029Z,6.53
2019-04-27T11:26:30.002Z,6.45
2019-04-27T11:28:05.702Z,5.05
2019-04-27T11:29:40.278Z,6.03
2019-04-27T11:31:16.985Z,6.55
2019-04-27T11:32:54.602Z,6.58
2019-04-27T11:34:32.924Z,5.87
2019-04-27T11:36:20.878Z,6.42
2019-04-27T11:37:56.725Z,6.37
2019-04-27T11:39:30.936Z,5.37
2019-04-27T11:41:05.152Z,5.92
2019-04-27T11:42:39.416Z,6.78
2019-04-27T11:44:15.273Z,6.28
2019-04-27T11:45:50.764Z,6.78
2019-04-27T11:47:24.988Z,5.53
2019-04-27T11:48:59.700Z,6.20
2019-04-27T11:50:35.645Z,6.33
2019-04-27T11:52:09.773Z,6.10
2019-04-27T11:53:43.980Z,6.10
2019-04-27T11:55:19.032Z,6.85
2019-04-27T11:56:53.275Z,5.92
2019-04-27T11:58:27.480Z,6.60
2019-04-27T12:00:02.117Z,6.47
2019-04-27T12:01:37.228Z,6.12
2019-04-27T12:03:11.524Z,6.08
2019-04-27T12:04:46.657Z,5.33
2019-04-27T12:06:21.063Z,5.65
2019-04-27T12:07:56.059Z,5.42
2019-04-27T12:09:30.566Z,6.90
2019-04-27T12:11:05.893Z,6.40
2019-04-27T12:12:40.490Z,5.60
2019-04-27T12:14:14.709Z,6.33
2019-04-27T12:15:48.918Z,5.50
2019-04-27T12:17:23.136Z,6.25
2019-04-27T12:18:59.061Z,6.00
2019-04-27T12:20:33.275Z,5.37
2019-04-27T12:22:07.480Z,5.33
2019-04-27T12:23:41.689Z,6.45
2019-04-27T12:25:16.347Z,6.45
2019-04-27T12:26:55.808Z,6.05
2019-04-27T12:28:41.827Z,5.60
2019-04-27T12:30:21.135Z,5.40
2019-04-27T12:46:08.256Z,5.65
2019-04-27T12:47:43.144Z,6.67
2019-04-27T12:49:17.698Z,6.83
2019-04-27T12:50:51.913Z,6.10
2019-04-27T12:52:26.233Z,5.83
2019-04-27T12:54:05.976Z,7.40
2019-04-27T12:55:42.120Z,6.17
2019-04-27T12:57:20.907Z,6.72
2019-04-27T12:58:59.824Z,6.95
2019-04-27T13:00:41.426Z,5.60
2019-04-27T13:02:15.629Z,6.65
2019-04-27T13:03:50.493Z,6.55
2019-04-27T13:05:25.814Z,5.80
2019-04-27T13:07:00.368Z,5.97
2019-04-27T13:08:35.739Z,6.10
2019-04-27T13:10:10.569Z,6.55
2019-04-27T13:11:45.927Z,5.92
2019-04-27T13:13:20.678Z,5.55
2019-04-27T13:14:55.164Z,5.33
2019-04-27T13:16:30.544Z,5.30
2019-04-27T13:18:05.573Z,5.80
2019-04-27T13:19:40.137Z,5.55
2019-04-27T13:21:15.688Z,5.37
2019-04-27T13:22:50.314Z,6.10
2019-04-27T13:24:26.106Z,6.17
2019-04-27T13:26:00.421Z,5.25
2019-04-27T13:27:34.629Z,5.50
2019-04-27T13:29:08.855Z,5.45
2019-04-27T13:30:43.114Z,6.03
2019-04-27T13:32:17.333Z,5.85
2019-04-27T13:33:51.549Z,6.37
2019-04-27T13:35:25.935Z,6.15
2019-04-27T13:37:01.965Z,6.33
2019-04-27T13:38:36.587Z,5.97
2019-04-27T13:40:17.045Z,5.28
2019-04-27T13:41:51.538Z,5.60
2019-04-27T13:43:33.314Z,5.75
2019-04-27T13:45:09.172Z,6.15
2019-04-27T13:46:57.271Z,6.30
2019-04-27T13:48:51.321Z,5.67
2019-04-27T13:50:27.107Z,6.30
2019-04-27T13:52:02.980Z,6.20
2019-04-27T13:53:37.225Z,6.05
2019-04-27T13:55:11.735Z,6.12
2019-04-27T13:56:47.636Z,6.25
2019-04-27T13:58:21.880Z,6.10
2019-04-27T13:59:56.220Z,6.25
2019-04-27T14:01:30.515Z,6.67
2019-04-27T14:03:05.341Z,6.80
2019-04-27T14:04:39.596Z,7.35
2019-04-27T14:06:13.917Z,6.33
2019-04-27T14:07:49.435Z,6.03
2019-04-27T14:09:24.007Z,6.42
2019-04-27T14:10:58.841Z,6.67
2019-04-27T14:12:34.140Z,6.30
2019-04-27T14:14:08.402Z,5.70
2019-04-27T14:15:42.628Z,6.05
2019-04-27T14:17:19.301Z,6.60
2019-04-27T14:18:53.762Z,6.58
2019-04-27T14:20:28.726Z,6.12
2019-04-27T14:22:03.010Z,5.47
2019-04-27T14:23:38.553Z,5.70
2019-04-27T14:25:13.391Z,7.05
2019-04-27T14:26:48.578Z,6.58
2019-04-27T14:28:23.031Z,6.62
2019-04-27T14:29:59.567Z,5.92
2019-04-27T14:31:34.100Z,6.97
2019-04-27T14:33:08.531Z,6.75
2019-04-27T14:34:43.014Z,6.72
2019-04-27T14:36:18.243Z,6.70
2019-04-27T14:37:52.556Z,7.00
2019-04-27T14:39:28.526Z,5.90
2019-04-27T14:41:02.753Z,6.72
2019-04-27T14:42:36.954Z,6.95
2019-04-27T14:44:11.177Z,6.83
2019-04-27T14:45:48.484Z,7.08
2019-04-27T14:47:22.840Z,7.37
2019-04-27T14:48:57.048Z,7.03
2019-04-27T14:50:31.628Z,8.75
2019-04-27T14:52:06.248Z,8.43
2019-04-27T14:53:40.533Z,9.23
2019-04-27T14:55:14.752Z,9.93
2019-04-27T14:56:49.021Z,11.38
2019-04-27T14:58:23.233Z,8.88
2019-04-27T14:59:58.374Z,8.50
2019-04-27T15:01:33.381Z,8.58
2019-04-27T15:03:07.712Z,8.30
2019-04-27T15:04:42.414Z,9.13
2019-04-27T15:06:16.952Z,8.13
2019-04-27T15:07:51.776Z,7.95
2019-04-27T15:09:26.136Z,8.40
2019-04-27T15:11:00.353Z,8.50
2019-04-27T15:12:34.580Z,7.75
2019-04-27T15:14:09.192Z,9.58
2019-04-27T15:15:43.774Z,7.75
2019-04-27T15:17:23.283Z,8.40
2019-04-27T15:18:55.508Z,9.53
2019-04-27T15:20:41.638Z,8.83
2019-04-27T15:22:19.619Z,9.08
2019-04-27T15:23:53.416Z,9.28
2019-04-27T15:25:27.637Z,9.88
2019-04-27T15:27:02.291Z,11.63
2019-04-27T15:28:38.356Z,12.00
2019-04-27T15:30:17.988Z,9.55
2019-04-27T15:31:55.858Z,10.00
2019-04-27T15:33:51.432Z,8.55
2019-04-27T15:35:35.543Z,9.90
2019-04-27T15:37:12.181Z,9.98
2019-04-27T15:38:51.355Z,10.43
2019-04-27T15:40:28.940Z,9.95
2019-04-27T15:42:08.020Z,10.00
2019-04-27T15:43:42.464Z,11.25
2019-04-27T15:45:22.859Z,12.60
2019-04-27T15:46:52.692Z,13.90
2019-04-27T15:48:30.489Z,14.47
2019-04-27T15:50:02.881Z,13.08
2019-04-27T15:51:39.001Z,13.60
2019-04-27T15:53:13.216Z,11.70
2019-04-27T15:54:48.137Z,11.48
2019-04-27T15:56:22.548Z,12.58
2019-04-27T15:57:56.870Z,11.75
2019-04-27T15:59:37.729Z,10.55
2019-04-27T16:01:09.878Z,10.32
2019-04-27T16:02:44.544Z,10.65
2019-04-27T16:04:19.307Z,10.70
2019-04-27T16:05:53.535Z,10.90
2019-04-27T16:07:30.385Z,12.75
2019-04-27T16:09:07.695Z,11.18
2019-04-27T16:10:42.180Z,13.10
2019-04-27T16:12:18.028Z,11.50
2019-04-27T16:13:52.316Z,11.68
2019-04-27T16:15:27.913Z,11.65
2019-04-27T16:17:03.031Z,10.68
2019-04-27T16:18:38.821Z,11.73
2019-04-27T16:20:22.501Z,11.65
2019-04-27T16:21:54.094Z,10.82
2019-04-27T16:23:28.215Z,13.05
2019-04-27T16:25:03.875Z,12.93
2019-04-27T16:26:39.062Z,12.73
2019-04-27T16:28:14.372Z,12.18
2019-04-27T16:29:49.214Z,12.47
2019-04-27T16:31:24.809Z,12.28
2019-04-27T16:32:59.498Z,12.70
2019-04-27T16:34:37.846Z,11.78
2019-04-27T16:36:09.762Z,13.83
2019-04-27T16:37:52.101Z,14.45
2019-04-27T16:39:24.756Z,13.28
2019-04-27T16:41:03.203Z,11.83
2019-04-27T16:42:35.424Z,13.55
2019-04-27T16:44:10.895Z,12.85
2019-04-27T16:45:45.667Z,14.55
2019-04-27T16:47:24.318Z,13.80
2019-04-27T16:48:55.817Z,13.43
2019-04-27T16:50:30.044Z,12.78
2019-04-27T16:52:04.429Z,13.98
2019-04-27T16:53:41.121Z,12.73
2019-04-27T16:55:17.363Z,12.98
2019-04-27T16:56:56.648Z,13.78
2019-04-27T16:58:26.365Z,12.03
2019-04-27T17:00:01.138Z,12.25
2019-04-27T17:01:40.043Z,14.28
2019-04-27T17:03:11.696Z,15.58
2019-04-27T17:04:52.810Z,16.55
2019-04-27T17:06:21.856Z,19.75
2019-04-27T17:07:56.093Z,19.27
2019-04-27T17:09:30.360Z,20.57
2019-04-27T17:11:11.402Z,16.05
2019-04-27T17:12:45.633Z,19.87
2019-04-27T17:14:20.569Z,20.52
2019-04-27T17:16:08.627Z,18.85
2019-04-27T17:17:50.860Z,18.85
2019-04-27T17:19:25.244Z,16.20
2019-04-27T17:21:05.548Z,18.00
2019-04-27T17:22:38.460Z,19.23
2019-04-27T17:24:14.700Z,21.30
2019-04-27T17:25:52.975Z,16.25
2019-04-27T17:27:31.217Z,18.10
2019-04-27T17:29:15.976Z,17.07
2019-04-27T17:30:46.112Z,15.98
2019-04-27T17:32:30.296Z,17.35
2019-04-27T17:34:03.691Z,16.07
2019-04-27T17:35:41.759Z,14.98
2019-04-27T17:37:13.916Z,17.02
2019-04-27T17:38:50.996Z,17.25
2019-04-27T17:40:24.145Z,16.17
2019-04-27T17:41:58.781Z,17.70
2019-04-27T17:43:33.265Z,15.55
2019-04-27T17:45:09.006Z,15.75
2019-04-27T17:46:49.427Z,14.60
2019-04-27T17:48:19.309Z,14.73
2019-04-27T17:49:53.516Z,14.43
2019-04-27T17:51:28.534Z,14.05
2019-04-27T17:53:04.904Z,14.10
2019-04-27T17:54:40.837Z,15.38
2019-04-27T17:56:15.073Z,15.35
2019-04-27T17:57:49.992Z,13.35
2019-04-27T17:59:24.344Z,13.03
2019-04-27T18:00:59.910Z,12.43
2019-04-27T18:02:38.983Z,12.43
2019-04-27T18:04:10.695Z,11.78
2019-04-27T18:05:50.563Z,10.60
2019-04-27T18:07:21.148Z,11.30
2019-04-27T18:09:00.868Z,11.03
2019-04-27T18:10:31.270Z,10.15
2019-04-27T18:12:08.099Z,12.47
2019-04-27T18:13:42.150Z,10.28
2019-04-27T18:15:16.642Z,10.23
2019-04-27T18:16:52.495Z,11.63
2019-04-27T18:18:38.011Z,10.40
2019-04-27T18:20:18.383Z,11.48
2019-04-27T18:22:00.904Z,9.63
2019-04-27T18:23:36.963Z,8.55
2019-04-27T18:25:11.440Z,8.28
2019-04-27T18:26:51.615Z,7.55
2019-04-27T18:28:24.874Z,7.62
2019-04-27T18:30:03.335Z,7.42
2019-04-27T18:31:38.285Z,8.53
2019-04-27T18:33:14.254Z,8.78
2019-04-27T18:34:49.466Z,5.65
2019-04-27T18:36:24.364Z,6.12
2019-04-27T18:38:01.709Z,5.70
2019-04-27T18:39:34.416Z,5.70
2019-04-27T18:41:11.642Z,4.75
2019-04-27T18:42:44.625Z,5.35
2019-04-27T18:44:19.238Z,5.53
2019-04-27T18:45:53.742Z,7.60
2019-04-27T18:47:31.292Z,7.75
2019-04-27T18:49:05.523Z,7.47
2019-04-27T18:50:43.621Z,7.60
2019-04-27T18:52:35.557Z,8.20
2019-04-27T18:54:11.465Z,8.63
2019-04-27T18:55:45.734Z,7.90
2019-04-27T18:57:20.008Z,8.58
2019-04-27T18:58:54.225Z,7.37
2019-04-27T19:00:29.510Z,7.75
2019-04-27T19:02:04.072Z,8.70
2019-04-27T19:03:39.142Z,8.95
2019-04-27T19:05:13.414Z,9.08
2019-04-27T19:06:47.633Z,7.25
2019-04-27T19:08:21.957Z,7.67
2019-04-27T19:09:56.164Z,7.65
2019-04-27T19:11:32.428Z,6.47
2019-04-27T19:13:08.557Z,5.70
2019-04-27T19:14:42.541Z,7.33
2019-04-27T19:16:18.720Z,7.20
2019-04-27T19:17:53.174Z,6.45
2019-04-27T19:19:28.014Z,6.12
2019-04-27T19:21:02.492Z,6.03
2019-04-27T19:22:38.466Z,7.08
2019-04-27T19:24:12.601Z,6.72
2019-04-27T19:25:48.449Z,6.53
2019-04-27T19:27:42.597Z,7.75
2019-04-27T19:29:18.935Z,6.17
2019-04-27T19:31:10.101Z,6.53
2019-04-27T19:32:44.380Z,4.65
2019-04-27T19:34:18.643Z,3.65
2019-04-27T19:35:52.860Z,4.08
2019-04-27T19:37:28.626Z,3.80
2019-04-27T19:39:04.956Z,3.52
2019-04-27T19:40:39.200Z,3.42
2019-04-27T19:42:13.412Z,3.33
2019-04-27T19:43:48.809Z,3.92
2019-04-27T19:45:23.137Z,4.00
2019-04-27T19:46:59.958Z,3.12
2019-04-27T19:48:33.845Z,4.35
2019-04-27T19:50:10.161Z,3.72
2019-04-27T19:51:44.024Z,4.40
2019-04-27T19:53:19.420Z,6.80
2019-04-27T19:54:54.157Z,5.92
2019-04-27T19:56:28.512Z,5.25
2019-04-27T19:58:03.180Z,4.58
2019-04-27T19:59:39.083Z,5.83
2019-04-27T20:01:15.525Z,6.47
2019-04-27T20:02:50.337Z,5.80
2019-04-27T20:04:26.176Z,5.65
2019-04-27T20:06:00.468Z,4.78
2019-04-27T20:07:34.851Z,4.58
2019-04-27T20:09:23.009Z,5.10
2019-04-27T20:10:57.356Z,6.03
2019-04-27T20:12:33.213Z,5.28
2019-04-27T20:14:07.429Z,5.03
2019-04-27T20:15:42.971Z,5.53
2019-04-27T20:17:17.369Z,3.70
2019-04-27T20:18:51.710Z,5.35
2019-04-27T20:20:26.185Z,5.42
2019-04-27T20:22:00.850Z,6.10
2019-04-27T20:23:35.148Z,6.90
2019-04-27T20:25:11.094Z,7.85
2019-04-27T20:26:45.216Z,8.63
2019-04-27T20:28:20.631Z,7.65
2019-04-27T20:29:55.407Z,5.28
2019-04-27T20:31:30.655Z,4.65
2019-04-27T20:33:05.477Z,6.20
2019-04-27T20:34:41.226Z,5.28
2019-04-27T20:36:15.600Z,5.20
2019-04-27T20:37:51.706Z,4.90
2019-04-27T20:39:25.704Z,4.87
2019-04-27T20:41:01.374Z,5.12
2019-04-27T20:42:35.829Z,4.87
2019-04-27T20:44:12.299Z,5.60
2019-04-27T20:45:46.299Z,5.78
2019-04-27T20:47:20.573Z,4.17
2019-04-27T20:48:55.350Z,4.70
2019-04-27T20:50:30.887Z,4.47
2019-04-27T20:52:13.097Z,4.67
2019-04-27T20:53:54.696Z,4.53
2019-04-27T20:55:29.697Z,5.40
2019-04-27T20:57:04.416Z,5.83
2019-04-27T20:58:38.615Z,6.10
2019-04-27T21:00:15.153Z,6.33
2019-04-27T21:01:49.499Z,6.42
2019-04-27T21:03:25.346Z,6.78
2019-04-27T21:05:17.616Z,7.37
2019-04-27T21:06:53.462Z,7.90
2019-04-27T21:08:31.984Z,8.18
2019-04-27T21:10:07.905Z,9.55
2019-04-27T21:11:48.798Z,8.63
2019-04-27T21:13:23.020Z,9.80